sensor_id;sensor_type;location;lat;lon;timestamp;P1;durP1;ratioP1;P2;durP2;ratioP2
28311;SDS011;15572;48.810;9.148;2023-03-13T00:00:51;8.27;;;2.60;;
28311;SDS011;15572;48.810;9.148;2023-03-13T00:05:54;12.37;;;4.13;;
28311;SDS011;15572;48.810;9.148;2023-03-13T00:10:51;16.27;;;6.33;;
28311;SDS011;15572;48.810;9.148;2023-03-13T00:15:48;15.13;;;5.00;;
28311;SDS011;15572;48.810;9.148;2023-03-13T00:20:45;12.43;;;3.53;;
28311;SDS011;15572;48.810;9.148;2023-03-13T00:25:42;9.13;;;3.10;;
28311;SDS011;15572;48.810;9.148;2023-03-13T00:30:39;9.53;;;3.20;;
28311;SDS011;15572;48.810;9.148;2023-03-13T00:35:37;9.13;;;2.90;;
28311;SDS011;15572;48.810;9.148;2023-03-13T00:40:33;10.50;;;2.83;;
28311;SDS011;15572;48.810;9.148;2023-03-13T00:45:29;12.67;;;3.07;;
28311;SDS011;15572;48.810;9.148;2023-03-13T00:50:26;11.83;;;3.23;;
28311;SDS011;15572;48.810;9.148;2023-03-13T00:55:24;11.53;;;2.90;;
28311;SDS011;15572;48.810;9.148;2023-03-13T01:00:20;14.13;;;3.10;;
28311;SDS011;15572;48.810;9.148;2023-03-13T01:05:17;11.27;;;3.10;;
28311;SDS011;15572;48.810;9.148;2023-03-13T01:10:13;10.87;;;2.70;;
28311;SDS011;15572;48.810;9.148;2023-03-13T01:15:11;14.00;;;3.30;;
28311;SDS011;15572;48.810;9.148;2023-03-13T01:20:08;13.70;;;3.20;;
28311;SDS011;15572;48.810;9.148;2023-03-13T01:25:06;9.90;;;2.70;;
28311;SDS011;15572;48.810;9.148;2023-03-13T01:30:04;10.23;;;3.13;;
28311;SDS011;15572;48.810;9.148;2023-03-13T01:35:02;14.57;;;3.17;;
28311;SDS011;15572;48.810;9.148;2023-03-13T01:39:59;11.63;;;2.70;;
28311;SDS011;15572;48.810;9.148;2023-03-13T01:44:56;14.53;;;2.90;;
28311;SDS011;15572;48.810;9.148;2023-03-13T01:49:52;9.43;;;3.00;;
28311;SDS011;15572;48.810;9.148;2023-03-13T01:54:50;11.93;;;3.00;;
28311;SDS011;15572;48.810;9.148;2023-03-13T01:59:51;11.33;;;2.80;;
28311;SDS011;15572;48.810;9.148;2023-03-13T02:04:51;11.70;;;2.90;;
28311;SDS011;15572;48.810;9.148;2023-03-13T02:09:53;8.90;;;2.80;;
28311;SDS011;15572;48.810;9.148;2023-03-13T02:14:51;8.97;;;2.70;;
28311;SDS011;15572;48.810;9.148;2023-03-13T02:19:49;7.27;;;2.67;;
28311;SDS011;15572;48.810;9.148;2023-03-13T02:24:48;11.50;;;2.57;;
28311;SDS011;15572;48.810;9.148;2023-03-13T02:29:53;11.30;;;2.63;;
28311;SDS011;15572;48.810;9.148;2023-03-13T02:34:50;4.63;;;2.13;;
28311;SDS011;15572;48.810;9.148;2023-03-13T02:39:51;8.63;;;2.83;;
28311;SDS011;15572;48.810;9.148;2023-03-13T02:44:47;9.20;;;2.73;;
28311;SDS011;15572;48.810;9.148;2023-03-13T02:49:46;10.40;;;2.80;;
28311;SDS011;15572;48.810;9.148;2023-03-13T02:54:46;8.30;;;2.60;;
28311;SDS011;15572;48.810;9.148;2023-03-13T02:59:46;5.80;;;1.90;;
28311;SDS011;15572;48.810;9.148;2023-03-13T03:04:42;4.97;;;1.83;;
28311;SDS011;15572;48.810;9.148;2023-03-13T03:09:40;6.10;;;1.70;;
28311;SDS011;15572;48.810;9.148;2023-03-13T03:14:37;7.30;;;1.87;;
28311;SDS011;15572;48.810;9.148;2023-03-13T03:19:33;6.33;;;1.57;;
28311;SDS011;15572;48.810;9.148;2023-03-13T03:24:30;6.30;;;1.60;;
28311;SDS011;15572;48.810;9.148;2023-03-13T03:29:28;4.87;;;1.70;;
28311;SDS011;15572;48.810;9.148;2023-03-13T03:34:24;5.07;;;1.40;;
28311;SDS011;15572;48.810;9.148;2023-03-13T03:39:21;4.37;;;1.10;;
28311;SDS011;15572;48.810;9.148;2023-03-13T03:44:17;2.70;;;1.50;;
28311;SDS011;15572;48.810;9.148;2023-03-13T03:49:15;4.97;;;1.20;;
28311;SDS011;15572;48.810;9.148;2023-03-13T03:54:11;4.30;;;1.40;;
28311;SDS011;15572;48.810;9.148;2023-03-13T03:59:08;4.57;;;1.20;;
28311;SDS011;15572;48.810;9.148;2023-03-13T04:04:04;4.83;;;1.10;;
28311;SDS011;15572;48.810;9.148;2023-03-13T04:09:02;3.03;;;1.10;;
28311;SDS011;15572;48.810;9.148;2023-03-13T04:13:59;2.87;;;1.00;;
28311;SDS011;15572;48.810;9.148;2023-03-13T04:18:55;1.20;;;0.80;;
28311;SDS011;15572;48.810;9.148;2023-03-13T04:23:51;1.83;;;1.00;;
28311;SDS011;15572;48.810;9.148;2023-03-13T04:28:49;1.83;;;0.80;;
28311;SDS011;15572;48.810;9.148;2023-03-13T04:33:46;1.53;;;1.10;;
28311;SDS011;15572;48.810;9.148;2023-03-13T04:38:42;1.07;;;0.70;;
28311;SDS011;15572;48.810;9.148;2023-03-13T04:43:39;1.23;;;0.70;;
28311;SDS011;15572;48.810;9.148;2023-03-13T04:48:37;0.80;;;0.60;;
28311;SDS011;15572;48.810;9.148;2023-03-13T04:53:33;1.70;;;0.80;;
28311;SDS011;15572;48.810;9.148;2023-03-13T04:58:29;2.13;;;0.80;;
28311;SDS011;15572;48.810;9.148;2023-03-13T05:03:26;1.33;;;0.90;;
28311;SDS011;15572;48.810;9.148;2023-03-13T05:08:24;1.57;;;0.67;;
28311;SDS011;15572;48.810;9.148;2023-03-13T05:13:20;1.30;;;0.77;;
28311;SDS011;15572;48.810;9.148;2023-03-13T05:18:16;2.03;;;0.63;;
28311;SDS011;15572;48.810;9.148;2023-03-13T05:23:13;1.10;;;0.60;;
28311;SDS011;15572;48.810;9.148;2023-03-13T05:28:11;2.03;;;0.70;;
28311;SDS011;15572;48.810;9.148;2023-03-13T05:33:07;1.73;;;0.50;;
28311;SDS011;15572;48.810;9.148;2023-03-13T05:38:04;1.43;;;0.73;;
28311;SDS011;15572;48.810;9.148;2023-03-13T05:43:00;2.30;;;0.70;;
28311;SDS011;15572;48.810;9.148;2023-03-13T05:47:58;0.87;;;0.60;;
28311;SDS011;15572;48.810;9.148;2023-03-13T05:52:54;0.87;;;0.50;;
28311;SDS011;15572;48.810;9.148;2023-03-13T05:57:51;0.93;;;0.50;;
28311;SDS011;15572;48.810;9.148;2023-03-13T06:02:47;1.33;;;0.60;;
28311;SDS011;15572;48.810;9.148;2023-03-13T06:07:45;0.67;;;0.50;;
28311;SDS011;15572;48.810;9.148;2023-03-13T06:12:43;1.67;;;0.70;;
28311;SDS011;15572;48.810;9.148;2023-03-13T06:17:46;1.07;;;0.60;;
28311;SDS011;15572;48.810;9.148;2023-03-13T06:22:43;0.67;;;0.57;;
28311;SDS011;15572;48.810;9.148;2023-03-13T06:27:41;1.07;;;0.60;;
28311;SDS011;15572;48.810;9.148;2023-03-13T06:32:37;0.80;;;0.57;;
28311;SDS011;15572;48.810;9.148;2023-03-13T06:37:34;1.20;;;0.70;;
28311;SDS011;15572;48.810;9.148;2023-03-13T06:42:30;1.10;;;0.70;;
28311;SDS011;15572;48.810;9.148;2023-03-13T06:47:28;0.73;;;0.50;;
28311;SDS011;15572;48.810;9.148;2023-03-13T06:52:25;0.60;;;0.60;;
28311;SDS011;15572;48.810;9.148;2023-03-13T06:57:22;0.90;;;0.47;;
28311;SDS011;15572;48.810;9.148;2023-03-13T07:02:19;2.03;;;0.60;;
28311;SDS011;15572;48.810;9.148;2023-03-13T07:07:16;1.00;;;0.60;;
28311;SDS011;15572;48.810;9.148;2023-03-13T07:12:13;0.73;;;0.60;;
28311;SDS011;15572;48.810;9.148;2023-03-13T07:17:09;0.60;;;0.60;;
28311;SDS011;15572;48.810;9.148;2023-03-13T07:22:06;0.80;;;0.60;;
28311;SDS011;15572;48.810;9.148;2023-03-13T07:27:04;0.57;;;0.50;;
28311;SDS011;15572;48.810;9.148;2023-03-13T07:32:00;0.57;;;0.50;;
28311;SDS011;15572;48.810;9.148;2023-03-13T07:36:57;3.47;;;0.60;;
28311;SDS011;15572;48.810;9.148;2023-03-13T07:41:53;0.70;;;0.70;;
28311;SDS011;15572;48.810;9.148;2023-03-13T07:46:51;0.40;;;0.40;;
28311;SDS011;15572;48.810;9.148;2023-03-13T07:51:47;0.60;;;0.60;;
28311;SDS011;15572;48.810;9.148;2023-03-13T07:56:45;2.57;;;0.60;;
28311;SDS011;15572;48.810;9.148;2023-03-13T08:01:41;1.97;;;0.60;;
28311;SDS011;15572;48.810;9.148;2023-03-13T08:06:39;1.90;;;0.60;;
28311;SDS011;15572;48.810;9.148;2023-03-13T08:11:36;2.50;;;0.60;;
28311;SDS011;15572;48.810;9.148;2023-03-13T08:16:34;1.60;;;0.80;;
28311;SDS011;15572;48.810;9.148;2023-03-13T08:21:31;0.90;;;0.60;;
28311;SDS011;15572;48.810;9.148;2023-03-13T08:26:30;0.97;;;0.60;;
28311;SDS011;15572;48.810;9.148;2023-03-13T08:31:28;1.30;;;0.53;;
28311;SDS011;15572;48.810;9.148;2023-03-13T08:36:26;0.90;;;0.80;;
28311;SDS011;15572;48.810;9.148;2023-03-13T08:41:25;0.90;;;0.70;;
28311;SDS011;15572;48.810;9.148;2023-03-13T08:46:24;0.90;;;0.60;;
28311;SDS011;15572;48.810;9.148;2023-03-13T08:51:21;0.93;;;0.80;;
28311;SDS011;15572;48.810;9.148;2023-03-13T08:56:20;1.40;;;0.90;;
28311;SDS011;15572;48.810;9.148;2023-03-13T09:01:18;1.77;;;0.70;;
28311;SDS011;15572;48.810;9.148;2023-03-13T09:06:17;1.47;;;0.67;;
28311;SDS011;15572;48.810;9.148;2023-03-13T09:11:14;0.83;;;0.80;;
28311;SDS011;15572;48.810;9.148;2023-03-13T09:16:12;1.17;;;0.93;;
28311;SDS011;15572;48.810;9.148;2023-03-13T09:21:11;1.07;;;0.73;;
28311;SDS011;15572;48.810;9.148;2023-03-13T09:26:10;3.00;;;1.07;;
28311;SDS011;15572;48.810;9.148;2023-03-13T09:31:08;1.60;;;1.00;;
28311;SDS011;15572;48.810;9.148;2023-03-13T09:36:06;0.90;;;0.90;;
28311;SDS011;15572;48.810;9.148;2023-03-13T09:41:04;0.80;;;0.73;;
28311;SDS011;15572;48.810;9.148;2023-03-13T09:46:16;1.50;;;1.03;;
28311;SDS011;15572;48.810;9.148;2023-03-13T09:51:18;4.00;;;0.87;;
28311;SDS011;15572;48.810;9.148;2023-03-13T09:56:23;0.97;;;0.90;;
28311;SDS011;15572;48.810;9.148;2023-03-13T10:01:22;3.97;;;1.30;;
28311;SDS011;15572;48.810;9.148;2023-03-13T10:06:23;6.47;;;1.10;;
28311;SDS011;15572;48.810;9.148;2023-03-13T10:11:24;1.37;;;1.03;;
28311;SDS011;15572;48.810;9.148;2023-03-13T10:16:26;2.03;;;1.10;;
28311;SDS011;15572;48.810;9.148;2023-03-13T10:21:29;2.17;;;1.10;;
28311;SDS011;15572;48.810;9.148;2023-03-13T10:26:31;2.17;;;1.23;;
28311;SDS011;15572;48.810;9.148;2023-03-13T10:31:30;1.77;;;1.20;;
28311;SDS011;15572;48.810;9.148;2023-03-13T10:36:29;3.10;;;1.30;;
28311;SDS011;15572;48.810;9.148;2023-03-13T10:41:36;1.53;;;1.10;;
28311;SDS011;15572;48.810;9.148;2023-03-13T10:46:34;2.30;;;1.40;;
28311;SDS011;15572;48.810;9.148;2023-03-13T10:51:36;1.20;;;0.93;;
28311;SDS011;15572;48.810;9.148;2023-03-13T10:56:34;1.50;;;1.00;;
28311;SDS011;15572;48.810;9.148;2023-03-13T11:01:38;3.37;;;1.03;;
28311;SDS011;15572;48.810;9.148;2023-03-13T11:06:38;3.27;;;1.30;;
28311;SDS011;15572;48.810;9.148;2023-03-13T11:11:42;2.93;;;1.20;;
28311;SDS011;15572;48.810;9.148;2023-03-13T11:16:43;1.17;;;1.07;;
28311;SDS011;15572;48.810;9.148;2023-03-13T11:21:45;2.53;;;1.40;;
28311;SDS011;15572;48.810;9.148;2023-03-13T11:26:51;3.00;;;1.40;;
28311;SDS011;15572;48.810;9.148;2023-03-13T11:31:56;1.58;;;1.20;;
28311;SDS011;15572;48.810;9.148;2023-03-13T11:36:56;3.15;;;1.30;;
28311;SDS011;15572;48.810;9.148;2023-03-13T11:41:58;2.30;;;1.10;;
28311;SDS011;15572;48.810;9.148;2023-03-13T11:47:02;3.58;;;1.25;;
28311;SDS011;15572;48.810;9.148;2023-03-13T11:52:08;1.95;;;1.17;;
28311;SDS011;15572;48.810;9.148;2023-03-13T11:57:12;2.10;;;1.10;;
28311;SDS011;15572;48.810;9.148;2023-03-13T12:02:17;2.65;;;1.30;;
28311;SDS011;15572;48.810;9.148;2023-03-13T12:07:20;2.17;;;1.20;;
28311;SDS011;15572;48.810;9.148;2023-03-13T12:12:28;2.03;;;1.20;;
28311;SDS011;15572;48.810;9.148;2023-03-13T12:17:34;3.70;;;1.08;;
28311;SDS011;15572;48.810;9.148;2023-03-13T12:22:35;1.58;;;1.10;;
28311;SDS011;15572;48.810;9.148;2023-03-13T12:27:34;3.58;;;1.15;;
28311;SDS011;15572;48.810;9.148;2023-03-13T12:32:36;2.40;;;1.00;;
28311;SDS011;15572;48.810;9.148;2023-03-13T12:37:37;2.58;;;1.13;;
28311;SDS011;15572;48.810;9.148;2023-03-13T12:42:39;2.80;;;1.02;;
28311;SDS011;15572;48.810;9.148;2023-03-13T12:47:49;2.67;;;1.00;;
28311;SDS011;15572;48.810;9.148;2023-03-13T12:58:38;3.92;;;1.00;;
28311;SDS011;15572;48.810;9.148;2023-03-13T13:03:48;4.00;;;0.90;;
28311;SDS011;15572;48.810;9.148;2023-03-13T13:08:49;4.03;;;0.90;;
28311;SDS011;15572;48.810;9.148;2023-03-13T13:14:03;1.35;;;0.90;;
28311;SDS011;15572;48.810;9.148;2023-03-13T13:24:50;0.95;;;0.60;;
28311;SDS011;15572;48.810;9.148;2023-03-13T13:29:52;1.48;;;0.60;;
28311;SDS011;15572;48.810;9.148;2023-03-13T13:34:58;1.73;;;0.90;;
28311;SDS011;15572;48.810;9.148;2023-03-13T13:40:16;2.83;;;0.75;;
28311;SDS011;15572;48.810;9.148;2023-03-13T13:45:25;1.70;;;0.70;;
28311;SDS011;15572;48.810;9.148;2023-03-13T13:50:26;0.75;;;0.70;;
28311;SDS011;15572;48.810;9.148;2023-03-13T13:55:33;3.42;;;0.80;;
28311;SDS011;15572;48.810;9.148;2023-03-13T14:00:38;3.03;;;0.80;;
28311;SDS011;15572;48.810;9.148;2023-03-13T14:05:38;1.73;;;0.80;;
28311;SDS011;15572;48.810;9.148;2023-03-13T14:10:38;1.30;;;0.77;;
28311;SDS011;15572;48.810;9.148;2023-03-13T14:15:35;1.15;;;0.60;;
28311;SDS011;15572;48.810;9.148;2023-03-13T14:20:32;1.83;;;0.85;;
28311;SDS011;15572;48.810;9.148;2023-03-13T14:25:42;1.77;;;0.73;;
28311;SDS011;15572;48.810;9.148;2023-03-13T14:30:41;0.93;;;0.80;;
28311;SDS011;15572;48.810;9.148;2023-03-13T14:35:38;2.42;;;0.73;;
28311;SDS011;15572;48.810;9.148;2023-03-13T14:40:36;2.10;;;0.65;;
28311;SDS011;15572;48.810;9.148;2023-03-13T14:45:35;0.80;;;0.60;;
28311;SDS011;15572;48.810;9.148;2023-03-13T14:50:33;1.20;;;0.80;;
28311;SDS011;15572;48.810;9.148;2023-03-13T14:55:31;1.15;;;0.82;;
28311;SDS011;15572;48.810;9.148;2023-03-13T15:00:32;3.72;;;1.10;;
28311;SDS011;15572;48.810;9.148;2023-03-13T15:05:34;1.67;;;0.80;;
28311;SDS011;15572;48.810;9.148;2023-03-13T15:10:31;1.95;;;0.82;;
28311;SDS011;15572;48.810;9.148;2023-03-13T15:15:30;2.65;;;0.95;;
28311;SDS011;15572;48.810;9.148;2023-03-13T15:20:28;1.30;;;0.90;;
28311;SDS011;15572;48.810;9.148;2023-03-13T15:25:25;1.92;;;1.05;;
28311;SDS011;15572;48.810;9.148;2023-03-13T15:30:21;1.25;;;0.80;;
28311;SDS011;15572;48.810;9.148;2023-03-13T15:35:23;3.13;;;0.90;;
28311;SDS011;15572;48.810;9.148;2023-03-13T15:40:24;1.05;;;0.93;;
28311;SDS011;15572;48.810;9.148;2023-03-13T15:45:21;1.30;;;0.95;;
28311;SDS011;15572;48.810;9.148;2023-03-13T15:55:19;2.10;;;0.80;;
28311;SDS011;15572;48.810;9.148;2023-03-13T16:00:18;1.95;;;0.90;;
28311;SDS011;15572;48.810;9.148;2023-03-13T16:05:16;2.20;;;1.00;;
28311;SDS011;15572;48.810;9.148;2023-03-13T16:10:14;2.10;;;0.90;;
28311;SDS011;15572;48.810;9.148;2023-03-13T16:15:12;2.17;;;1.00;;
28311;SDS011;15572;48.810;9.148;2023-03-13T16:20:14;1.25;;;1.10;;
28311;SDS011;15572;48.810;9.148;2023-03-13T16:25:12;1.98;;;1.00;;
28311;SDS011;15572;48.810;9.148;2023-03-13T16:30:11;3.45;;;0.93;;
28311;SDS011;15572;48.810;9.148;2023-03-13T16:35:13;2.47;;;0.77;;
28311;SDS011;15572;48.810;9.148;2023-03-13T16:40:12;1.75;;;1.00;;
28311;SDS011;15572;48.810;9.148;2023-03-13T16:45:11;1.17;;;0.90;;
28311;SDS011;15572;48.810;9.148;2023-03-13T16:50:11;3.03;;;1.10;;
28311;SDS011;15572;48.810;9.148;2023-03-13T16:55:14;3.25;;;1.00;;
28311;SDS011;15572;48.810;9.148;2023-03-13T17:00:15;2.72;;;1.00;;
28311;SDS011;15572;48.810;9.148;2023-03-13T17:05:15;2.70;;;1.08;;
28311;SDS011;15572;48.810;9.148;2023-03-13T17:10:17;1.58;;;1.10;;
28311;SDS011;15572;48.810;9.148;2023-03-13T17:15:15;1.27;;;1.00;;
28311;SDS011;15572;48.810;9.148;2023-03-13T17:20:12;2.28;;;1.10;;
28311;SDS011;15572;48.810;9.148;2023-03-13T17:25:11;19.00;;;11.13;;
28311;SDS011;15572;48.810;9.148;2023-03-13T17:30:15;12.18;;;7.47;;
28311;SDS011;15572;48.810;9.148;2023-03-13T17:35:15;9.13;;;6.53;;
28311;SDS011;15572;48.810;9.148;2023-03-13T17:40:18;8.90;;;5.88;;
28311;SDS011;15572;48.810;9.148;2023-03-13T17:45:16;4.35;;;3.30;;
28311;SDS011;15572;48.810;9.148;2023-03-13T17:50:13;5.97;;;3.13;;
28311;SDS011;15572;48.810;9.148;2023-03-13T17:55:11;1.75;;;1.05;;
28311;SDS011;15572;48.810;9.148;2023-03-13T18:00:18;2.33;;;0.95;;
28311;SDS011;15572;48.810;9.148;2023-03-13T18:05:16;3.25;;;1.27;;
28311;SDS011;15572;48.810;9.148;2023-03-13T18:10:17;4.45;;;1.50;;
28311;SDS011;15572;48.810;9.148;2023-03-13T18:15:16;4.25;;;1.70;;
28311;SDS011;15572;48.810;9.148;2023-03-13T18:20:15;1.65;;;1.15;;
28311;SDS011;15572;48.810;9.148;2023-03-13T18:25:13;5.72;;;3.00;;
28311;SDS011;15572;48.810;9.148;2023-03-13T18:30:13;2.60;;;1.60;;
28311;SDS011;15572;48.810;9.148;2023-03-13T18:35:12;2.75;;;1.50;;
28311;SDS011;15572;48.810;9.148;2023-03-13T18:40:13;2.23;;;1.63;;
28311;SDS011;15572;48.810;9.148;2023-03-13T18:45:12;3.47;;;1.40;;
28311;SDS011;15572;48.810;9.148;2023-03-13T18:50:15;3.47;;;1.50;;
28311;SDS011;15572;48.810;9.148;2023-03-13T18:55:16;1.93;;;1.10;;
28311;SDS011;15572;48.810;9.148;2023-03-13T19:00:13;3.60;;;1.47;;
28311;SDS011;15572;48.810;9.148;2023-03-13T19:05:12;2.63;;;2.20;;
28311;SDS011;15572;48.810;9.148;2023-03-13T19:10:17;4.03;;;1.87;;
28311;SDS011;15572;48.810;9.148;2023-03-13T19:15:15;4.47;;;2.13;;
28311;SDS011;15572;48.810;9.148;2023-03-13T19:20:13;3.80;;;1.70;;
28311;SDS011;15572;48.810;9.148;2023-03-13T19:25:11;3.30;;;1.80;;
28311;SDS011;15572;48.810;9.148;2023-03-13T19:30:15;3.30;;;1.80;;
28311;SDS011;15572;48.810;9.148;2023-03-13T19:35:13;14.03;;;12.23;;
28311;SDS011;15572;48.810;9.148;2023-03-13T19:40:14;3.00;;;2.70;;
28311;SDS011;15572;48.810;9.148;2023-03-13T19:45:13;4.30;;;2.43;;
28311;SDS011;15572;48.810;9.148;2023-03-13T19:50:16;3.70;;;2.60;;
28311;SDS011;15572;48.810;9.148;2023-03-13T19:55:14;3.57;;;2.43;;
28311;SDS011;15572;48.810;9.148;2023-03-13T20:00:15;4.90;;;2.30;;
28311;SDS011;15572;48.810;9.148;2023-03-13T20:15:26;1.67;;;0.80;;
28311;SDS011;15572;48.810;9.148;2023-03-13T20:20:23;1.50;;;0.93;;
28311;SDS011;15572;48.810;9.148;2023-03-13T20:25:21;0.77;;;0.70;;
28311;SDS011;15572;48.810;9.148;2023-03-13T20:30:18;2.53;;;0.90;;
28311;SDS011;15572;48.810;9.148;2023-03-13T20:35:14;4.43;;;0.80;;
28311;SDS011;15572;48.810;9.148;2023-03-13T20:40:11;1.07;;;0.60;;
28311;SDS011;15572;48.810;9.148;2023-03-13T20:45:09;1.07;;;0.60;;
28311;SDS011;15572;48.810;9.148;2023-03-13T20:50:07;1.50;;;0.97;;
28311;SDS011;15572;48.810;9.148;2023-03-13T20:55:04;1.90;;;0.83;;
28311;SDS011;15572;48.810;9.148;2023-03-13T21:00:03;3.67;;;1.60;;
28311;SDS011;15572;48.810;9.148;2023-03-13T21:05:02;3.10;;;1.33;;
28311;SDS011;15572;48.810;9.148;2023-03-13T21:09:59;1.10;;;0.70;;
28311;SDS011;15572;48.810;9.148;2023-03-13T21:14:55;0.80;;;0.80;;
28311;SDS011;15572;48.810;9.148;2023-03-13T21:19:52;3.40;;;1.63;;
28311;SDS011;15572;48.810;9.148;2023-03-13T21:24:50;3.80;;;1.03;;
28311;SDS011;15572;48.810;9.148;2023-03-13T21:29:47;0.70;;;0.60;;
28311;SDS011;15572;48.810;9.148;2023-03-13T21:34:44;3.10;;;0.77;;
28311;SDS011;15572;48.810;9.148;2023-03-13T21:39:41;1.43;;;1.07;;
28311;SDS011;15572;48.810;9.148;2023-03-13T21:44:39;2.50;;;0.90;;
28311;SDS011;15572;48.810;9.148;2023-03-13T21:49:36;2.07;;;0.90;;
28311;SDS011;15572;48.810;9.148;2023-03-13T21:54:32;0.87;;;0.60;;
28311;SDS011;15572;48.810;9.148;2023-03-13T21:59:29;1.33;;;0.70;;
28311;SDS011;15572;48.810;9.148;2023-03-13T22:04:27;1.10;;;0.73;;
28311;SDS011;15572;48.810;9.148;2023-03-13T22:09:23;1.00;;;0.90;;
28311;SDS011;15572;48.810;9.148;2023-03-13T22:14:20;1.20;;;0.80;;
28311;SDS011;15572;48.810;9.148;2023-03-13T22:19:19;0.80;;;0.60;;
28311;SDS011;15572;48.810;9.148;2023-03-13T22:24:16;2.27;;;0.80;;
28311;SDS011;15572;48.810;9.148;2023-03-13T22:29:13;1.60;;;0.80;;
28311;SDS011;15572;48.810;9.148;2023-03-13T22:34:09;1.27;;;0.80;;
28311;SDS011;15572;48.810;9.148;2023-03-13T22:39:06;1.63;;;0.67;;
28311;SDS011;15572;48.810;9.148;2023-03-13T22:44:04;0.50;;;0.50;;
28311;SDS011;15572;48.810;9.148;2023-03-13T22:49:00;2.27;;;0.80;;
28311;SDS011;15572;48.810;9.148;2023-03-13T22:53:57;1.53;;;0.60;;
28311;SDS011;15572;48.810;9.148;2023-03-13T22:58:53;1.00;;;0.80;;
28311;SDS011;15572;48.810;9.148;2023-03-13T23:03:51;1.13;;;0.50;;
28311;SDS011;15572;48.810;9.148;2023-03-13T23:08:47;4.90;;;1.30;;
28311;SDS011;15572;48.810;9.148;2023-03-13T23:13:44;0.73;;;0.60;;
28311;SDS011;15572;48.810;9.148;2023-03-13T23:18:41;1.20;;;0.57;;
28311;SDS011;15572;48.810;9.148;2023-03-13T23:23:39;0.50;;;0.50;;
28311;SDS011;15572;48.810;9.148;2023-03-13T23:28:36;1.43;;;0.53;;
28311;SDS011;15572;48.810;9.148;2023-03-13T23:33:34;1.10;;;0.70;;
28311;SDS011;15572;48.810;9.148;2023-03-13T23:38:30;0.83;;;0.60;;
28311;SDS011;15572;48.810;9.148;2023-03-13T23:43:28;1.27;;;0.60;;
28311;SDS011;15572;48.810;9.148;2023-03-13T23:48:24;1.33;;;0.70;;
28311;SDS011;15572;48.810;9.148;2023-03-13T23:53:21;1.53;;;0.53;;
28311;SDS011;15572;48.810;9.148;2023-03-13T23:58:17;0.60;;;0.60;;
